Cologne, Virginia
Current Conditions -  °F | °C
As of 5:15 AM on Tuesday 27 Jan 2015 (Local Time) from KFYJ Reporting Station
Overcast Overcast  
Wind Chill: 26°   Ceiling: 4600
Heat Index: 32°   Visibility: 7mi
Dew Point: 26°   Wind: 6mph
Humidity: 81%   Direction: 340°NNW
Pressure: 29.73"   Gusts: NA
Location:  37.6069°N, 76.8926°W
Report Text: KFYJ 271015Z AUTO 34005KT 7SM SCT017 BKN046 OVC055 00/M03 A2973 RMK AO2 T10021031
Loading
Personal Weather Stations






























Interactive Weather Map New forecast layout! Learn more

10-Day Weather Forecast

Advertisements
Track Severe Weather on mobile